createdAt,value
2022-09-03T00:00:55.002Z,1.50
2022-09-03T00:03:28.623Z,1.60
2022-09-03T00:06:03.938Z,1.70
2022-09-03T00:08:33.760Z,1.65
2022-09-03T00:11:06.180Z,1.50
2022-09-03T00:13:40.729Z,1.75
2022-09-03T00:16:22.234Z,1.45
2022-09-03T00:18:54.797Z,1.40
2022-09-03T00:21:34.890Z,1.73
2022-09-03T00:24:05.130Z,1.38
2022-09-03T00:26:40.818Z,1.85
2022-09-03T00:29:11.825Z,1.70
2022-09-03T00:31:42.963Z,1.90
2022-09-03T00:34:17.572Z,1.75
2022-09-03T00:36:49.766Z,1.65
2022-09-03T00:39:21.508Z,1.67
2022-09-03T00:41:57.905Z,1.98
2022-09-03T00:44:33.336Z,1.70
2022-09-03T00:47:05.853Z,1.80
2022-09-03T00:49:46.714Z,1.33
2022-09-03T00:52:41.085Z,1.67
2022-09-03T00:55:35.124Z,1.50
2022-09-03T00:58:13.509Z,1.70
2022-09-03T01:00:45.684Z,1.73
2022-09-03T01:03:16.849Z,1.60
2022-09-03T01:06:04.747Z,1.70
2022-09-03T01:08:42.243Z,1.45
2022-09-03T01:11:20.648Z,1.83
2022-09-03T01:13:52.940Z,1.67
2022-09-03T01:16:27.177Z,1.73
2022-09-03T01:19:05.267Z,1.80
2022-09-03T01:21:47.441Z,1.60
2022-09-03T01:25:08.227Z,1.80
2022-09-03T01:27:44.914Z,1.77
2022-09-03T01:30:20.152Z,1.60
2022-09-03T01:32:53.041Z,1.90
2022-09-03T01:35:25.740Z,2.00
2022-09-03T01:38:08.826Z,1.70
2022-09-03T01:40:41.991Z,1.52
2022-09-03T01:43:23.526Z,1.63
2022-09-03T01:46:00.750Z,1.80
2022-09-03T01:48:44.885Z,1.45
2022-09-03T01:51:39.284Z,1.80
2022-09-03T01:54:28.380Z,1.60
2022-09-03T01:57:34.597Z,2.00
2022-09-03T02:00:07.319Z,1.50
2022-09-03T02:02:39.866Z,1.77
2022-09-03T02:05:10.435Z,1.80
2022-09-03T02:07:40.030Z,1.67
2022-09-03T02:10:11.725Z,1.60
2022-09-03T02:12:42.595Z,1.85
2022-09-03T02:15:13.712Z,1.90
2022-09-03T02:17:46.013Z,1.58
2022-09-03T02:20:20.339Z,1.77
2022-09-03T02:22:49.412Z,1.73
2022-09-03T02:25:19.401Z,1.60
2022-09-03T02:27:48.026Z,1.58
2022-09-03T02:30:36.393Z,1.88
2022-09-03T02:33:27.358Z,1.70
2022-09-03T02:35:56.059Z,2.03
2022-09-03T02:38:45.316Z,1.65
2022-09-03T02:41:15.102Z,1.90
2022-09-03T02:43:49.074Z,1.58
2022-09-03T02:46:28.059Z,1.52
2022-09-03T02:48:58.366Z,1.85
2022-09-03T02:51:27.007Z,1.75
2022-09-03T02:54:20.756Z,1.75
2022-09-03T02:56:51.153Z,1.77
2022-09-03T02:59:19.545Z,2.10
2022-09-03T03:01:47.943Z,2.10
2022-09-03T03:04:17.941Z,2.20
2022-09-03T03:06:47.584Z,1.63
2022-09-03T03:09:21.317Z,1.92
2022-09-03T03:11:52.170Z,2.00
2022-09-03T03:14:40.969Z,1.90
2022-09-03T03:17:09.447Z,1.65
2022-09-03T03:19:39.662Z,1.88
2022-09-03T03:22:08.439Z,1.80
2022-09-03T03:24:36.937Z,2.00
2022-09-03T03:27:07.312Z,2.00
2022-09-03T03:29:35.872Z,2.03
2022-09-03T03:32:04.842Z,2.45
2022-09-03T03:34:33.174Z,2.15
2022-09-03T03:37:03.028Z,1.95
2022-09-03T03:39:32.794Z,1.90
2022-09-03T03:42:03.058Z,2.28
2022-09-03T03:44:31.412Z,2.10
2022-09-03T03:47:02.083Z,1.83
2022-09-03T03:49:32.309Z,2.03
2022-09-03T03:52:03.137Z,2.47
2022-09-03T03:54:32.825Z,2.15
2022-09-03T03:57:01.415Z,2.25
2022-09-03T03:59:32.106Z,2.38
2022-09-03T04:02:00.939Z,2.28
2022-09-03T04:04:30.504Z,2.60
2022-09-03T04:06:58.784Z,2.15
2022-09-03T04:09:29.188Z,1.88
2022-09-03T04:12:08.426Z,2.00
2022-09-03T04:14:37.006Z,2.55
2022-09-03T04:17:05.483Z,2.17
2022-09-03T04:19:33.768Z,3.03
2022-09-03T04:22:03.172Z,2.17
2022-09-03T04:24:32.209Z,2.47
2022-09-03T04:27:01.836Z,2.10
2022-09-03T04:29:31.308Z,2.00
2022-09-03T04:32:17.385Z,2.03
2022-09-03T04:34:45.752Z,1.77
2022-09-03T04:37:14.012Z,2.28
2022-09-03T04:39:42.366Z,2.35
2022-09-03T04:42:12.162Z,2.10
2022-09-03T04:44:41.138Z,2.35
2022-09-03T04:47:09.499Z,2.20
2022-09-03T04:49:38.866Z,2.22
2022-09-03T04:52:07.155Z,1.92
2022-09-03T04:54:35.628Z,2.40
2022-09-03T04:57:03.975Z,2.25
2022-09-03T04:59:33.644Z,2.25
2022-09-03T05:02:01.934Z,2.08
2022-09-03T05:04:30.367Z,2.13
2022-09-03T05:06:58.712Z,2.40
2022-09-03T05:09:26.970Z,2.10
2022-09-03T05:11:55.406Z,2.20
2022-09-03T05:14:23.696Z,2.50
2022-09-03T05:16:53.490Z,2.22
2022-09-03T05:19:22.353Z,2.20
2022-09-03T05:21:50.771Z,2.08
2022-09-03T05:24:19.060Z,2.28
2022-09-03T05:26:48.688Z,2.08
2022-09-03T05:29:17.020Z,2.08
2022-09-03T05:31:45.338Z,2.35
2022-09-03T05:34:18.358Z,2.42
2022-09-03T05:36:47.071Z,2.00
2022-09-03T05:39:15.558Z,1.75
2022-09-03T05:41:43.879Z,2.08
2022-09-03T05:44:12.184Z,2.22
2022-09-03T05:46:40.698Z,2.50
2022-09-03T05:49:09.309Z,1.80
2022-09-03T05:51:40.002Z,2.03
2022-09-03T05:54:09.372Z,1.88
2022-09-03T05:56:39.980Z,2.35
2022-09-03T05:59:09.313Z,2.47
2022-09-03T06:01:38.858Z,2.00
2022-09-03T06:04:08.024Z,1.90
2022-09-03T06:06:37.112Z,1.65
2022-09-03T06:09:07.834Z,2.28
2022-09-03T06:11:37.553Z,2.03
2022-09-03T06:14:08.204Z,2.20
2022-09-03T06:16:37.807Z,2.15
2022-09-03T06:19:07.207Z,2.35
2022-09-03T06:21:35.964Z,2.20
2022-09-03T06:24:04.936Z,2.25
2022-09-03T06:26:34.746Z,2.03
2022-09-03T06:29:03.054Z,2.58
2022-09-03T06:31:31.437Z,2.20
2022-09-03T06:34:04.081Z,2.42
2022-09-03T06:36:32.655Z,2.10
2022-09-03T06:39:01.422Z,2.08
2022-09-03T06:41:35.266Z,2.20
2022-09-03T06:44:05.683Z,1.95
2022-09-03T06:46:35.044Z,1.88
2022-09-03T06:49:03.962Z,1.95
2022-09-03T06:51:33.211Z,2.30
2022-09-03T06:54:02.492Z,2.13
2022-09-03T06:56:33.956Z,1.92
2022-09-03T06:59:07.908Z,2.03
2022-09-03T07:01:44.100Z,2.45
2022-09-03T07:04:13.110Z,1.90
2022-09-03T07:06:43.313Z,1.90
2022-09-03T07:09:12.994Z,2.10
2022-09-03T07:11:47.369Z,1.83
2022-09-03T07:14:18.858Z,2.20
2022-09-03T07:16:47.739Z,1.73
2022-09-03T07:19:16.386Z,2.03
2022-09-03T07:21:49.768Z,1.92
2022-09-03T07:24:19.342Z,2.05
2022-09-03T07:26:49.066Z,1.90
2022-09-03T07:29:21.662Z,1.75
2022-09-03T07:31:52.607Z,2.10
2022-09-03T07:34:25.637Z,1.95
2022-09-03T07:36:54.967Z,2.08
2022-09-03T07:39:23.386Z,2.00
2022-09-03T07:41:51.905Z,2.13
2022-09-03T07:44:23.039Z,2.75
2022-09-03T07:46:52.248Z,1.80
2022-09-03T07:49:21.798Z,1.80
2022-09-03T07:51:53.429Z,1.80
2022-09-03T07:54:23.849Z,1.92
2022-09-03T07:56:52.195Z,2.00
2022-09-03T07:59:23.033Z,2.03
2022-09-03T08:01:52.264Z,2.42
2022-09-03T08:04:22.854Z,1.83
2022-09-03T08:06:55.656Z,1.70
2022-09-03T08:09:24.425Z,2.30
2022-09-03T08:11:52.950Z,2.40
2022-09-03T08:14:22.700Z,2.00
2022-09-03T08:16:51.111Z,1.92
2022-09-03T08:19:20.217Z,2.10
2022-09-03T08:21:48.628Z,1.92
2022-09-03T08:24:17.899Z,2.00
2022-09-03T08:26:51.414Z,1.92
2022-09-03T08:29:20.374Z,2.08
2022-09-03T08:31:50.304Z,2.08
2022-09-03T08:34:18.687Z,2.20
2022-09-03T08:36:47.665Z,1.98
2022-09-03T08:39:16.148Z,1.80
2022-09-03T08:41:50.925Z,2.05
2022-09-03T08:44:24.111Z,2.00
2022-09-03T08:46:58.132Z,1.90
2022-09-03T08:49:29.423Z,1.83
2022-09-03T08:51:58.957Z,1.73
2022-09-03T08:54:29.241Z,1.90
2022-09-03T08:56:58.761Z,1.70
2022-09-03T08:59:32.922Z,1.80
2022-09-03T09:02:07.142Z,1.63
2022-09-03T09:04:41.144Z,1.80
2022-09-03T09:07:13.077Z,1.80
2022-09-03T09:09:49.131Z,1.77
2022-09-03T09:12:23.467Z,1.60
2022-09-03T09:14:54.296Z,2.25
2022-09-03T09:17:32.701Z,1.90
2022-09-03T09:20:06.848Z,2.08
2022-09-03T09:22:37.059Z,1.77
2022-09-03T09:25:09.316Z,1.52
2022-09-03T09:27:37.564Z,2.10
2022-09-03T09:30:06.921Z,1.60
2022-09-03T09:32:38.450Z,2.00
2022-09-03T09:35:10.433Z,1.95
2022-09-03T09:37:48.573Z,1.73
2022-09-03T09:40:25.720Z,2.00
2022-09-03T09:42:58.639Z,1.75
2022-09-03T09:45:27.304Z,2.00
2022-09-03T09:47:59.645Z,2.10
2022-09-03T09:50:28.064Z,2.05
2022-09-03T09:53:04.399Z,1.80
2022-09-03T09:55:33.388Z,1.80
2022-09-03T09:58:13.967Z,2.33
2022-09-03T10:00:42.900Z,1.85
2022-09-03T10:03:33.656Z,2.10
2022-09-03T10:06:26.743Z,1.95
2022-09-03T10:08:55.577Z,2.20
2022-09-03T10:11:27.507Z,1.83
2022-09-03T10:13:56.886Z,2.03
2022-09-03T10:16:27.998Z,2.00
2022-09-03T10:19:03.177Z,2.00
2022-09-03T10:21:34.443Z,2.15
2022-09-03T10:24:07.378Z,2.10
2022-09-03T10:26:38.363Z,2.67
2022-09-03T10:29:08.958Z,6.72
2022-09-03T10:31:56.990Z,2.50
2022-09-03T10:34:37.280Z,2.00
2022-09-03T10:37:11.834Z,2.22
2022-09-03T10:39:50.159Z,2.92
2022-09-03T10:42:28.406Z,1.98
2022-09-03T10:45:01.781Z,2.28
2022-09-03T10:47:43.073Z,1.77
2022-09-03T10:50:17.402Z,1.70
2022-09-03T10:52:59.064Z,2.00
2022-09-03T10:55:33.009Z,2.72
2022-09-03T10:58:08.096Z,2.03
2022-09-03T11:00:41.000Z,2.00
2022-09-03T11:03:21.057Z,2.15
2022-09-03T11:05:57.059Z,2.45
2022-09-03T11:08:28.356Z,1.60
2022-09-03T11:10:58.269Z,2.13
2022-09-03T11:13:28.224Z,1.95
2022-09-03T11:15:59.300Z,1.55
2022-09-03T11:18:29.500Z,1.35
2022-09-03T11:21:01.918Z,1.60
2022-09-03T11:23:32.309Z,1.40
2022-09-03T11:26:03.516Z,1.30
2022-09-03T11:28:37.225Z,1.42
2022-09-03T11:31:13.626Z,1.30
2022-09-03T11:33:43.590Z,1.27
2022-09-03T11:36:13.760Z,1.48
2022-09-03T11:38:43.191Z,1.67
2022-09-03T11:41:16.179Z,1.23
2022-09-03T11:43:46.126Z,1.98
2022-09-03T11:46:15.748Z,1.50
2022-09-03T11:48:45.477Z,1.60
2022-09-03T11:51:22.870Z,1.48
2022-09-03T11:53:57.697Z,1.48
2022-09-03T11:56:26.579Z,1.50
2022-09-03T11:59:02.512Z,1.48
2022-09-03T12:01:31.303Z,1.30
2022-09-03T12:04:01.494Z,1.50
2022-09-03T12:06:51.915Z,1.60
2022-09-03T12:09:38.207Z,1.40
2022-09-03T12:12:14.532Z,1.67
2022-09-03T12:14:48.663Z,1.88
2022-09-03T12:17:26.812Z,2.25
2022-09-03T12:20:16.064Z,1.70
2022-09-03T12:22:45.855Z,2.10
2022-09-03T12:25:15.352Z,1.80
2022-09-03T12:27:45.885Z,1.92
2022-09-03T12:30:17.288Z,1.92
2022-09-03T12:32:46.486Z,1.90
2022-09-03T12:35:58.278Z,1.95
2022-09-03T12:38:08.086Z,1.73
2022-09-03T12:41:24.297Z,2.20
2022-09-03T12:43:37.677Z,2.00
2022-09-03T12:46:14.550Z,1.90
2022-09-03T12:49:30.051Z,2.47
2022-09-03T12:51:57.466Z,2.78
2022-09-03T12:54:29.055Z,2.40
2022-09-03T12:56:58.979Z,2.25
2022-09-03T12:59:29.269Z,2.10
2022-09-03T13:02:00.189Z,2.13
2022-09-03T13:04:30.234Z,2.20
2022-09-03T13:07:03.701Z,2.15
2022-09-03T13:09:35.547Z,2.25
2022-09-03T13:12:05.877Z,2.28
2022-09-03T13:14:44.640Z,2.40
2022-09-03T13:17:20.967Z,2.40
2022-09-03T13:19:53.478Z,2.08
2022-09-03T13:22:27.158Z,2.00
2022-09-03T13:25:02.058Z,2.30
2022-09-03T13:27:33.619Z,2.05
2022-09-03T13:30:05.528Z,1.98
2022-09-03T13:32:38.006Z,2.08
2022-09-03T13:35:10.020Z,2.17
2022-09-03T13:37:41.289Z,2.08
2022-09-03T13:40:17.248Z,2.30
2022-09-03T13:42:47.474Z,2.35
2022-09-03T13:45:27.820Z,2.33
2022-09-03T13:48:18.191Z,1.95
2022-09-03T13:50:50.385Z,2.00
2022-09-03T13:53:22.759Z,1.98
2022-09-03T13:55:54.833Z,2.20
2022-09-03T13:58:27.663Z,2.15
2022-09-03T14:01:06.202Z,2.05
2022-09-03T14:03:37.167Z,2.10
2022-09-03T14:06:09.351Z,1.80
2022-09-03T14:08:54.280Z,2.10
2022-09-03T14:11:30.603Z,1.90
2022-09-03T14:14:11.180Z,2.00
2022-09-03T14:16:42.530Z,2.25
2022-09-03T14:19:38.155Z,1.98
2022-09-03T14:22:09.139Z,1.90
2022-09-03T14:24:43.336Z,1.98
2022-09-03T14:27:15.680Z,2.00
2022-09-03T14:29:52.345Z,2.20
2022-09-03T14:32:26.658Z,2.20
2022-09-03T14:35:00.319Z,1.70
2022-09-03T14:37:44.569Z,2.17
2022-09-03T14:40:16.594Z,2.05
2022-09-03T14:43:01.327Z,2.00
2022-09-03T14:45:37.144Z,1.83
2022-09-03T14:48:17.693Z,2.33
2022-09-03T14:50:52.106Z,1.75
2022-09-03T14:53:48.547Z,2.00
2022-09-03T14:56:23.899Z,1.98
2022-09-03T14:59:09.964Z,2.00
2022-09-03T15:01:40.041Z,1.95
2022-09-03T15:04:19.751Z,1.67
2022-09-03T15:06:53.632Z,2.22
2022-09-03T15:09:29.289Z,1.80
2022-09-03T15:11:58.168Z,2.17
2022-09-03T15:14:29.165Z,2.58
2022-09-03T15:17:01.800Z,2.05
2022-09-03T15:19:46.127Z,2.25
2022-09-03T15:22:19.161Z,2.15
2022-09-03T15:24:52.513Z,2.17
2022-09-03T15:27:32.015Z,1.90
2022-09-03T15:30:04.072Z,2.13
2022-09-03T15:32:44.038Z,2.00
2022-09-03T15:35:15.325Z,2.13
2022-09-03T15:37:46.549Z,2.40
2022-09-03T15:40:24.529Z,2.08
2022-09-03T15:42:54.488Z,2.00
2022-09-03T15:45:27.898Z,2.20
2022-09-03T15:47:58.530Z,2.20
2022-09-03T15:50:30.864Z,2.15
2022-09-03T15:53:03.771Z,1.98
2022-09-03T15:55:34.432Z,1.80
2022-09-03T15:58:10.373Z,2.17
2022-09-03T16:00:53.132Z,1.85
2022-09-03T16:03:25.638Z,1.90
2022-09-03T16:05:56.836Z,1.90
2022-09-03T16:08:27.706Z,1.80
2022-09-03T16:11:01.861Z,1.88
2022-09-03T16:13:38.527Z,1.70
2022-09-03T16:16:09.610Z,1.90
2022-09-03T16:18:59.833Z,2.20
2022-09-03T16:21:32.125Z,2.10
2022-09-03T16:24:02.620Z,1.90
2022-09-03T16:26:33.724Z,1.98
2022-09-03T16:29:05.252Z,2.10
2022-09-03T16:31:40.357Z,1.48
2022-09-03T16:34:18.472Z,2.13
2022-09-03T16:36:52.231Z,1.70
2022-09-03T16:39:24.899Z,1.90
2022-09-03T16:42:00.561Z,1.75
2022-09-03T16:44:34.111Z,1.52
2022-09-03T16:47:09.180Z,2.08
2022-09-03T16:49:48.539Z,1.90
2022-09-03T16:52:33.683Z,2.00
2022-09-03T16:55:10.881Z,1.92
2022-09-03T16:57:49.092Z,2.15
2022-09-03T17:00:19.913Z,1.92
2022-09-03T17:03:03.738Z,1.63
2022-09-03T17:05:59.390Z,2.08
2022-09-03T17:08:30.798Z,1.60
2022-09-03T17:11:05.231Z,1.55
2022-09-03T17:13:40.748Z,1.80
2022-09-03T17:16:23.577Z,1.70
2022-09-03T17:18:55.283Z,1.65
2022-09-03T17:21:35.207Z,1.67
2022-09-03T17:24:14.108Z,1.63
2022-09-03T17:26:45.838Z,1.73
2022-09-03T17:29:26.312Z,1.65
2022-09-03T17:32:00.086Z,1.80
2022-09-03T17:34:35.425Z,1.80
2022-09-03T17:37:10.136Z,1.85
2022-09-03T17:39:50.460Z,1.70
2022-09-03T17:42:20.480Z,1.70
2022-09-03T17:44:52.240Z,1.92
2022-09-03T17:47:41.000Z,2.08
2022-09-03T17:50:14.565Z,2.28
2022-09-03T17:52:46.816Z,2.33
2022-09-03T17:55:22.241Z,2.20
2022-09-03T17:57:54.493Z,2.30
2022-09-03T18:00:25.125Z,2.15
2022-09-03T18:02:56.795Z,1.73
2022-09-03T18:05:27.662Z,2.25
2022-09-03T18:08:00.171Z,1.88
2022-09-03T18:10:31.901Z,1.85
2022-09-03T18:13:05.612Z,1.90
2022-09-03T18:15:38.787Z,2.00
2022-09-03T18:18:09.987Z,2.05
2022-09-03T18:21:21.499Z,1.95
2022-09-03T18:24:11.667Z,1.88
2022-09-03T18:27:01.660Z,1.80
2022-09-03T18:29:54.347Z,2.13
2022-09-03T18:32:40.652Z,1.65
2022-09-03T18:35:27.460Z,1.70
2022-09-03T18:38:13.579Z,2.00
2022-09-03T18:41:06.925Z,1.95
2022-09-03T18:43:56.628Z,1.75
2022-09-03T18:48:00.964Z,1.80
2022-09-03T18:50:00.271Z,1.83
2022-09-03T18:52:59.543Z,1.95
2022-09-03T18:55:56.135Z,2.13
2022-09-03T18:58:51.146Z,2.10
2022-09-03T19:01:41.656Z,1.92
2022-09-03T19:04:31.086Z,2.10
2022-09-03T19:07:21.655Z,2.30
2022-09-03T19:10:11.760Z,1.88
2022-09-03T19:13:08.129Z,2.13
2022-09-03T19:16:01.835Z,2.03
2022-09-03T19:18:55.148Z,1.90
2022-09-03T19:21:48.218Z,2.00
2022-09-03T19:24:36.823Z,1.90
2022-09-03T19:27:50.925Z,1.80
2022-09-03T19:30:34.482Z,1.65
2022-09-03T19:33:45.897Z,2.10
2022-09-03T19:36:35.677Z,2.30
2022-09-03T19:39:31.793Z,1.90
2022-09-03T19:42:22.490Z,2.20
2022-09-03T19:45:13.797Z,2.17
2022-09-03T19:48:04.696Z,2.00
2022-09-03T19:50:55.383Z,2.30
2022-09-03T19:53:42.847Z,2.38
2022-09-03T19:56:30.529Z,2.38
2022-09-03T19:59:19.457Z,2.10
2022-09-03T20:02:07.322Z,2.47
2022-09-03T20:04:57.515Z,2.30
2022-09-03T20:07:44.992Z,2.50
2022-09-03T20:10:22.884Z,2.90
2022-09-03T20:12:53.940Z,2.50
2022-09-03T20:15:24.287Z,2.08
2022-09-03T20:18:02.236Z,2.40
2022-09-03T20:20:34.001Z,2.42
2022-09-03T20:23:13.890Z,2.17
2022-09-03T20:25:51.475Z,2.20
2022-09-03T20:28:30.627Z,2.83
2022-09-03T20:31:03.698Z,2.70
2022-09-03T20:33:38.696Z,2.28
2022-09-03T20:36:17.903Z,2.60
2022-09-03T20:38:54.668Z,2.40
2022-09-03T20:41:25.333Z,2.60
2022-09-03T20:44:09.468Z,2.63
2022-09-03T20:46:46.744Z,2.85
2022-09-03T20:49:20.222Z,3.03
2022-09-03T20:51:53.334Z,2.88
2022-09-03T20:54:31.309Z,3.00
2022-09-03T20:57:09.121Z,3.50
2022-09-03T20:59:44.478Z,3.40
2022-09-03T21:02:21.733Z,3.25
2022-09-03T21:04:52.803Z,3.78
2022-09-03T21:07:27.975Z,3.35
2022-09-03T21:10:03.868Z,3.63
2022-09-03T21:12:36.662Z,4.00
2022-09-03T21:15:06.909Z,3.88
2022-09-03T21:17:40.272Z,3.85
2022-09-03T21:20:16.768Z,3.70
2022-09-03T21:22:53.505Z,3.72
2022-09-03T21:25:25.335Z,4.10
2022-09-03T21:27:57.993Z,3.80
2022-09-03T21:30:26.264Z,4.40
2022-09-03T21:32:56.667Z,3.97
2022-09-03T21:35:28.476Z,3.63
2022-09-03T21:37:59.797Z,3.15
2022-09-03T21:40:32.532Z,3.25
2022-09-03T21:43:06.263Z,3.35
2022-09-03T21:45:37.113Z,3.78
2022-09-03T21:48:28.457Z,4.03
2022-09-03T21:50:58.064Z,4.00
2022-09-03T21:53:29.079Z,4.20
2022-09-03T21:56:10.222Z,3.95
2022-09-03T21:58:47.771Z,4.35
2022-09-03T22:01:20.997Z,3.90
2022-09-03T22:03:49.329Z,3.92
2022-09-03T22:06:25.164Z,3.45
2022-09-03T22:08:57.354Z,3.67
2022-09-03T22:11:36.186Z,3.58
2022-09-03T22:14:09.264Z,4.35
2022-09-03T22:16:40.767Z,3.90
2022-09-03T22:19:09.095Z,3.67
2022-09-03T22:21:39.674Z,3.67
2022-09-03T22:24:23.212Z,3.88
2022-09-03T22:26:56.618Z,4.03
2022-09-03T22:29:30.943Z,3.50
2022-09-03T22:32:04.655Z,4.43
2022-09-03T22:34:47.498Z,3.97
2022-09-03T22:37:21.877Z,4.32
2022-09-03T22:39:50.493Z,4.35
2022-09-03T22:42:24.988Z,3.80
2022-09-03T22:45:14.572Z,4.60
2022-09-03T22:47:47.726Z,4.90
2022-09-03T22:50:19.444Z,4.55
2022-09-03T22:53:12.794Z,4.03
2022-09-03T22:55:43.164Z,4.80
2022-09-03T22:58:15.711Z,4.30
2022-09-03T23:00:47.572Z,4.65
2022-09-03T23:03:20.403Z,4.75
2022-09-03T23:05:52.337Z,4.18
2022-09-03T23:08:25.438Z,4.57
2022-09-03T23:10:59.644Z,5.03
2022-09-03T23:13:32.944Z,4.93
2022-09-03T23:16:04.997Z,5.05
2022-09-03T23:18:35.815Z,5.20
2022-09-03T23:21:07.935Z,5.22
2022-09-03T23:23:38.129Z,5.70
2022-09-03T23:26:13.334Z,5.60
2022-09-03T23:28:51.556Z,4.72
2022-09-03T23:31:22.941Z,5.13
2022-09-03T23:33:53.831Z,5.85
2022-09-03T23:36:53.114Z,5.72
2022-09-03T23:39:27.024Z,5.85
2022-09-03T23:42:01.151Z,5.75
2022-09-03T23:44:57.833Z,6.50
2022-09-03T23:47:36.155Z,6.10
2022-09-03T23:50:10.551Z,5.38
2022-09-03T23:52:56.396Z,5.60
2022-09-03T23:55:30.265Z,6.00
2022-09-03T23:58:10.299Z,5.90
